sensor_id;sensor_type;location;lat;lon;timestamp;temperature;humidity
14006;DHT22;7078;51.542;7.314;2022-12-18T00:01:50;-6.40;99.90
14006;DHT22;7078;51.542;7.314;2022-12-18T00:04:21;-6.40;99.90
14006;DHT22;7078;51.542;7.314;2022-12-18T00:06:47;-6.30;99.90
14006;DHT22;7078;51.542;7.314;2022-12-18T00:09:12;-6.40;99.90
14006;DHT22;7078;51.542;7.314;2022-12-18T00:11:38;-6.30;99.90
14006;DHT22;7078;51.542;7.314;2022-12-18T00:14:03;-6.30;99.90
14006;DHT22;7078;51.542;7.314;2022-12-18T00:16:29;-6.30;99.90
14006;DHT22;7078;51.542;7.314;2022-12-18T00:19:01;-6.40;99.90
14006;DHT22;7078;51.542;7.314;2022-12-18T00:21:28;-6.40;99.90
14006;DHT22;7078;51.542;7.314;2022-12-18T00:23:54;-6.40;99.90
14006;DHT22;7078;51.542;7.314;2022-12-18T00:26:23;-6.40;99.90
14006;DHT22;7078;51.542;7.314;2022-12-18T00:28:49;-6.40;99.90
14006;DHT22;7078;51.542;7.314;2022-12-18T00:31:17;-6.40;99.90
14006;DHT22;7078;51.542;7.314;2022-12-18T00:33:44;-6.30;99.90
14006;DHT22;7078;51.542;7.314;2022-12-18T00:36:16;-6.40;99.90
14006;DHT22;7078;51.542;7.314;2022-12-18T00:38:42;-6.40;99.90
14006;DHT22;7078;51.542;7.314;2022-12-18T00:41:09;-6.40;99.90
14006;DHT22;7078;51.542;7.314;2022-12-18T00:43:36;-6.50;99.90
14006;DHT22;7078;51.542;7.314;2022-12-18T00:46:02;-6.50;99.90
14006;DHT22;7078;51.542;7.314;2022-12-18T00:48:27;-6.50;99.90
14006;DHT22;7078;51.542;7.314;2022-12-18T00:50:53;-6.60;99.90
14006;DHT22;7078;51.542;7.314;2022-12-18T00:53:19;-6.60;99.90
14006;DHT22;7078;51.542;7.314;2022-12-18T00:55:45;-6.60;99.90
14006;DHT22;7078;51.542;7.314;2022-12-18T00:58:11;-6.60;99.90
14006;DHT22;7078;51.542;7.314;2022-12-18T01:00:37;-6.60;99.90
14006;DHT22;7078;51.542;7.314;2022-12-18T01:03:03;-6.60;99.90
14006;DHT22;7078;51.542;7.314;2022-12-18T01:05:29;-6.60;99.90
14006;DHT22;7078;51.542;7.314;2022-12-18T01:07:56;-6.50;99.90
14006;DHT22;7078;51.542;7.314;2022-12-18T01:10:22;-6.50;99.90
14006;DHT22;7078;51.542;7.314;2022-12-18T01:12:47;-6.50;99.90
14006;DHT22;7078;51.542;7.314;2022-12-18T01:15:14;-6.50;99.90
14006;DHT22;7078;51.542;7.314;2022-12-18T01:17:41;-6.60;99.90
14006;DHT22;7078;51.542;7.314;2022-12-18T01:20:07;-6.60;99.90
14006;DHT22;7078;51.542;7.314;2022-12-18T01:22:34;-6.60;99.90
14006;DHT22;7078;51.542;7.314;2022-12-18T01:24:59;-6.60;99.90
14006;DHT22;7078;51.542;7.314;2022-12-18T01:27:25;-6.60;99.90
14006;DHT22;7078;51.542;7.314;2022-12-18T01:29:51;-6.60;99.90
14006;DHT22;7078;51.542;7.314;2022-12-18T01:32:16;-6.60;99.90
14006;DHT22;7078;51.542;7.314;2022-12-18T01:34:42;-6.60;99.90
14006;DHT22;7078;51.542;7.314;2022-12-18T01:37:07;-6.60;99.90
14006;DHT22;7078;51.542;7.314;2022-12-18T01:39:33;-6.70;99.90
14006;DHT22;7078;51.542;7.314;2022-12-18T01:42:00;-6.70;99.90
14006;DHT22;7078;51.542;7.314;2022-12-18T01:47:22;-6.70;99.90
14006;DHT22;7078;51.542;7.314;2022-12-18T01:49:49;-6.70;99.90
14006;DHT22;7078;51.542;7.314;2022-12-18T01:52:15;-6.70;99.90
14006;DHT22;7078;51.542;7.314;2022-12-18T01:54:42;-6.60;99.90
14006;DHT22;7078;51.542;7.314;2022-12-18T01:57:08;-6.60;99.90
14006;DHT22;7078;51.542;7.314;2022-12-18T01:59:34;-6.60;99.90
14006;DHT22;7078;51.542;7.314;2022-12-18T02:02:01;-6.60;99.90
14006;DHT22;7078;51.542;7.314;2022-12-18T02:04:27;-6.70;99.90
14006;DHT22;7078;51.542;7.314;2022-12-18T02:09:59;-6.70;99.90
14006;DHT22;7078;51.542;7.314;2022-12-18T02:12:35;-6.70;99.90
14006;DHT22;7078;51.542;7.314;2022-12-18T02:15:15;-6.70;99.90
14006;DHT22;7078;51.542;7.314;2022-12-18T02:17:54;-6.70;99.90
14006;DHT22;7078;51.542;7.314;2022-12-18T02:28:59;-6.70;99.90
14006;DHT22;7078;51.542;7.314;2022-12-18T02:31:25;-6.70;99.90
14006;DHT22;7078;51.542;7.314;2022-12-18T02:33:53;-6.60;99.90
14006;DHT22;7078;51.542;7.314;2022-12-18T02:36:20;-6.60;99.90
14006;DHT22;7078;51.542;7.314;2022-12-18T02:38:47;-6.60;99.90
14006;DHT22;7078;51.542;7.314;2022-12-18T02:41:14;-6.60;99.90
14006;DHT22;7078;51.542;7.314;2022-12-18T02:43:46;-6.60;99.90
14006;DHT22;7078;51.542;7.314;2022-12-18T02:46:25;-6.60;99.90
14006;DHT22;7078;51.542;7.314;2022-12-18T02:48:53;-6.60;99.90
14006;DHT22;7078;51.542;7.314;2022-12-18T02:51:38;-6.60;99.90
14006;DHT22;7078;51.542;7.314;2022-12-18T02:54:15;-6.60;99.90
14006;DHT22;7078;51.542;7.314;2022-12-18T02:56:51;-6.70;99.90
14006;DHT22;7078;51.542;7.314;2022-12-18T02:59:24;-6.70;99.90
14006;DHT22;7078;51.542;7.314;2022-12-18T03:01:58;-6.60;99.90
14006;DHT22;7078;51.542;7.314;2022-12-18T03:04:40;-6.60;99.90
14006;DHT22;7078;51.542;7.314;2022-12-18T03:07:15;-6.70;99.90
14006;DHT22;7078;51.542;7.314;2022-12-18T03:09:44;-6.70;99.90
14006;DHT22;7078;51.542;7.314;2022-12-18T03:12:27;-6.70;99.90
14006;DHT22;7078;51.542;7.314;2022-12-18T03:15:35;-6.70;99.90
14006;DHT22;7078;51.542;7.314;2022-12-18T03:18:05;-6.80;99.90
14006;DHT22;7078;51.542;7.314;2022-12-18T03:20:34;-6.80;99.90
14006;DHT22;7078;51.542;7.314;2022-12-18T03:23:09;-6.80;99.90
14006;DHT22;7078;51.542;7.314;2022-12-18T03:25:38;-6.70;99.90
14006;DHT22;7078;51.542;7.314;2022-12-18T03:28:06;-6.70;99.90
14006;DHT22;7078;51.542;7.314;2022-12-18T03:30:37;-6.70;99.90
14006;DHT22;7078;51.542;7.314;2022-12-18T03:35:43;-6.80;99.90
14006;DHT22;7078;51.542;7.314;2022-12-18T03:38:09;-6.70;99.90
14006;DHT22;7078;51.542;7.314;2022-12-18T03:40:44;-6.70;99.90
14006;DHT22;7078;51.542;7.314;2022-12-18T03:46:08;-6.80;99.90
14006;DHT22;7078;51.542;7.314;2022-12-18T03:48:44;-6.80;99.90
14006;DHT22;7078;51.542;7.314;2022-12-18T03:51:20;-6.80;99.90
14006;DHT22;7078;51.542;7.314;2022-12-18T03:54:01;-6.80;99.90
14006;DHT22;7078;51.542;7.314;2022-12-18T03:56:30;-6.80;99.90
14006;DHT22;7078;51.542;7.314;2022-12-18T03:58:59;-6.80;99.90
14006;DHT22;7078;51.542;7.314;2022-12-18T04:01:31;-6.90;99.90
14006;DHT22;7078;51.542;7.314;2022-12-18T04:03:59;-6.80;99.90
14006;DHT22;7078;51.542;7.314;2022-12-18T04:06:26;-6.90;99.90
14006;DHT22;7078;51.542;7.314;2022-12-18T04:08:53;-6.80;99.90
14006;DHT22;7078;51.542;7.314;2022-12-18T04:11:18;-6.90;99.90
14006;DHT22;7078;51.542;7.314;2022-12-18T04:13:44;-6.90;99.90
14006;DHT22;7078;51.542;7.314;2022-12-18T04:16:09;-6.80;99.90
14006;DHT22;7078;51.542;7.314;2022-12-18T04:18:35;-6.90;99.90
14006;DHT22;7078;51.542;7.314;2022-12-18T04:21:02;-6.90;99.90
14006;DHT22;7078;51.542;7.314;2022-12-18T04:23:27;-6.90;99.90
14006;DHT22;7078;51.542;7.314;2022-12-18T04:25:53;-6.90;99.90
14006;DHT22;7078;51.542;7.314;2022-12-18T04:28:19;-6.90;99.90
14006;DHT22;7078;51.542;7.314;2022-12-18T04:30:45;-6.90;99.90
14006;DHT22;7078;51.542;7.314;2022-12-18T04:33:11;-7.00;99.90
14006;DHT22;7078;51.542;7.314;2022-12-18T04:35:38;-6.90;99.90
14006;DHT22;7078;51.542;7.314;2022-12-18T04:38:03;-7.10;99.90
14006;DHT22;7078;51.542;7.314;2022-12-18T04:40:30;-7.00;99.90
14006;DHT22;7078;51.542;7.314;2022-12-18T04:42:55;-7.00;99.90
14006;DHT22;7078;51.542;7.314;2022-12-18T04:45:21;-7.00;99.90
14006;DHT22;7078;51.542;7.314;2022-12-18T04:47:46;-6.90;99.90
14006;DHT22;7078;51.542;7.314;2022-12-18T04:50:12;-6.90;99.90
14006;DHT22;7078;51.542;7.314;2022-12-18T04:52:37;-6.90;99.90
14006;DHT22;7078;51.542;7.314;2022-12-18T04:55:03;-6.90;99.90
14006;DHT22;7078;51.542;7.314;2022-12-18T04:57:29;-6.90;99.90
14006;DHT22;7078;51.542;7.314;2022-12-18T04:59:54;-6.90;99.90
14006;DHT22;7078;51.542;7.314;2022-12-18T05:02:20;-7.00;99.90
14006;DHT22;7078;51.542;7.314;2022-12-18T05:04:45;-7.00;99.90
14006;DHT22;7078;51.542;7.314;2022-12-18T05:07:11;-7.00;99.90
14006;DHT22;7078;51.542;7.314;2022-12-18T05:09:36;-6.90;99.90
14006;DHT22;7078;51.542;7.314;2022-12-18T05:12:02;-6.90;99.90
14006;DHT22;7078;51.542;7.314;2022-12-18T05:14:28;-6.90;99.90
14006;DHT22;7078;51.542;7.314;2022-12-18T05:16:54;-6.90;99.90
14006;DHT22;7078;51.542;7.314;2022-12-18T05:19:20;-6.90;99.90
14006;DHT22;7078;51.542;7.314;2022-12-18T05:21:45;-6.90;99.90
14006;DHT22;7078;51.542;7.314;2022-12-18T05:24:11;-6.90;99.90
14006;DHT22;7078;51.542;7.314;2022-12-18T05:26:36;-7.00;99.90
14006;DHT22;7078;51.542;7.314;2022-12-18T05:29:02;-7.00;99.90
14006;DHT22;7078;51.542;7.314;2022-12-18T05:31:28;-7.00;99.90
14006;DHT22;7078;51.542;7.314;2022-12-18T05:33:53;-6.90;99.90
14006;DHT22;7078;51.542;7.314;2022-12-18T05:36:19;-6.80;99.90
14006;DHT22;7078;51.542;7.314;2022-12-18T05:38:45;-6.80;99.90
14006;DHT22;7078;51.542;7.314;2022-12-18T05:41:10;-6.80;99.90
14006;DHT22;7078;51.542;7.314;2022-12-18T05:43:37;-6.80;99.90
14006;DHT22;7078;51.542;7.314;2022-12-18T05:46:08;-6.70;99.90
14006;DHT22;7078;51.542;7.314;2022-12-18T05:48:36;-6.70;99.90
14006;DHT22;7078;51.542;7.314;2022-12-18T05:51:10;-6.70;99.90
14006;DHT22;7078;51.542;7.314;2022-12-18T05:53:36;-6.80;99.90
14006;DHT22;7078;51.542;7.314;2022-12-18T05:56:04;-6.80;99.90
14006;DHT22;7078;51.542;7.314;2022-12-18T05:58:31;-6.90;99.90
14006;DHT22;7078;51.542;7.314;2022-12-18T06:00:57;-6.90;99.90
14006;DHT22;7078;51.542;7.314;2022-12-18T06:03:22;-6.90;99.90
14006;DHT22;7078;51.542;7.314;2022-12-18T06:05:48;-6.90;99.90
14006;DHT22;7078;51.542;7.314;2022-12-18T06:08:14;-6.90;99.90
14006;DHT22;7078;51.542;7.314;2022-12-18T06:10:40;-6.90;99.90
14006;DHT22;7078;51.542;7.314;2022-12-18T06:13:06;-6.90;99.90
14006;DHT22;7078;51.542;7.314;2022-12-18T06:15:32;-6.80;99.90
14006;DHT22;7078;51.542;7.314;2022-12-18T06:17:58;-6.90;99.90
14006;DHT22;7078;51.542;7.314;2022-12-18T06:20:23;-6.90;99.90
14006;DHT22;7078;51.542;7.314;2022-12-18T06:22:49;-6.90;99.90
14006;DHT22;7078;51.542;7.314;2022-12-18T06:25:15;-7.00;99.90
14006;DHT22;7078;51.542;7.314;2022-12-18T06:27:40;-7.00;99.90
14006;DHT22;7078;51.542;7.314;2022-12-18T06:30:06;-7.00;99.90
14006;DHT22;7078;51.542;7.314;2022-12-18T06:32:32;-7.00;99.90
14006;DHT22;7078;51.542;7.314;2022-12-18T06:34:57;-7.10;99.90
14006;DHT22;7078;51.542;7.314;2022-12-18T06:37:23;-7.10;99.90
14006;DHT22;7078;51.542;7.314;2022-12-18T06:39:53;-7.10;99.90
14006;DHT22;7078;51.542;7.314;2022-12-18T06:42:18;-7.10;99.90
14006;DHT22;7078;51.542;7.314;2022-12-18T06:44:47;-6.50;99.90
14006;DHT22;7078;51.542;7.314;2022-12-18T06:47:12;-4.80;99.90
14006;DHT22;7078;51.542;7.314;2022-12-18T06:49:38;-3.80;99.90
14006;DHT22;7078;51.542;7.314;2022-12-18T06:52:03;-3.50;99.90
14006;DHT22;7078;51.542;7.314;2022-12-18T06:54:29;-3.40;99.90
14006;DHT22;7078;51.542;7.314;2022-12-18T06:56:54;-3.90;99.90
14006;DHT22;7078;51.542;7.314;2022-12-18T06:59:20;-4.30;99.90
14006;DHT22;7078;51.542;7.314;2022-12-18T07:01:45;-4.90;99.90
14006;DHT22;7078;51.542;7.314;2022-12-18T07:04:11;-5.40;99.90
14006;DHT22;7078;51.542;7.314;2022-12-18T07:06:37;-5.70;99.90
14006;DHT22;7078;51.542;7.314;2022-12-18T07:09:02;-6.00;99.90
14006;DHT22;7078;51.542;7.314;2022-12-18T07:11:28;-6.20;99.90
14006;DHT22;7078;51.542;7.314;2022-12-18T07:13:53;-6.40;99.90
14006;DHT22;7078;51.542;7.314;2022-12-18T07:16:20;-6.50;99.90
14006;DHT22;7078;51.542;7.314;2022-12-18T07:18:46;-6.60;99.90
14006;DHT22;7078;51.542;7.314;2022-12-18T07:21:18;-6.70;99.90
14006;DHT22;7078;51.542;7.314;2022-12-18T07:23:44;-6.70;99.90
14006;DHT22;7078;51.542;7.314;2022-12-18T07:26:12;-6.70;99.90
14006;DHT22;7078;51.542;7.314;2022-12-18T07:28:40;-6.70;99.90
14006;DHT22;7078;51.542;7.314;2022-12-18T07:31:08;-6.70;99.90
14006;DHT22;7078;51.542;7.314;2022-12-18T07:33:34;-6.70;99.90
14006;DHT22;7078;51.542;7.314;2022-12-18T07:36:00;-6.80;99.90
14006;DHT22;7078;51.542;7.314;2022-12-18T07:38:26;-6.70;99.90
14006;DHT22;7078;51.542;7.314;2022-12-18T07:40:52;-6.70;99.90
14006;DHT22;7078;51.542;7.314;2022-12-18T07:43:17;-6.80;99.90
14006;DHT22;7078;51.542;7.314;2022-12-18T07:45:43;-6.70;99.90
14006;DHT22;7078;51.542;7.314;2022-12-18T07:48:09;-6.70;99.90
14006;DHT22;7078;51.542;7.314;2022-12-18T07:50:34;-6.50;99.90
14006;DHT22;7078;51.542;7.314;2022-12-18T07:53:00;-6.20;99.90
14006;DHT22;7078;51.542;7.314;2022-12-18T07:55:29;-5.80;99.90
14006;DHT22;7078;51.542;7.314;2022-12-18T07:57:55;-5.50;99.90
14006;DHT22;7078;51.542;7.314;2022-12-18T08:00:21;-5.20;99.90
14006;DHT22;7078;51.542;7.314;2022-12-18T08:02:47;-5.00;99.90
14006;DHT22;7078;51.542;7.314;2022-12-18T08:05:12;-4.70;99.90
14006;DHT22;7078;51.542;7.314;2022-12-18T08:07:39;-4.50;99.90
14006;DHT22;7078;51.542;7.314;2022-12-18T08:10:05;-4.30;99.90
14006;DHT22;7078;51.542;7.314;2022-12-18T08:12:31;-4.10;99.90
14006;DHT22;7078;51.542;7.314;2022-12-18T08:14:56;-4.00;99.90
14006;DHT22;7078;51.542;7.314;2022-12-18T08:17:22;-3.80;99.90
14006;DHT22;7078;51.542;7.314;2022-12-18T08:19:47;-3.90;99.90
14006;DHT22;7078;51.542;7.314;2022-12-18T08:22:13;-4.00;99.90
14006;DHT22;7078;51.542;7.314;2022-12-18T08:24:38;-4.20;99.90
14006;DHT22;7078;51.542;7.314;2022-12-18T08:27:04;-4.50;99.90
14006;DHT22;7078;51.542;7.314;2022-12-18T08:29:29;-4.70;99.90
14006;DHT22;7078;51.542;7.314;2022-12-18T08:31:55;-4.90;99.90
14006;DHT22;7078;51.542;7.314;2022-12-18T08:34:21;-5.00;99.90
14006;DHT22;7078;51.542;7.314;2022-12-18T08:36:47;-5.10;99.90
14006;DHT22;7078;51.542;7.314;2022-12-18T08:39:12;-5.20;99.90
14006;DHT22;7078;51.542;7.314;2022-12-18T08:41:38;-5.20;99.90
14006;DHT22;7078;51.542;7.314;2022-12-18T08:44:03;-5.20;99.90
14006;DHT22;7078;51.542;7.314;2022-12-18T08:46:47;-5.30;99.90
14006;DHT22;7078;51.542;7.314;2022-12-18T08:49:13;-5.10;99.90
14006;DHT22;7078;51.542;7.314;2022-12-18T08:51:39;-5.20;99.90
14006;DHT22;7078;51.542;7.314;2022-12-18T08:54:05;-5.10;99.90
14006;DHT22;7078;51.542;7.314;2022-12-18T08:56:31;-5.00;99.90
14006;DHT22;7078;51.542;7.314;2022-12-18T08:58:57;-5.00;99.90
14006;DHT22;7078;51.542;7.314;2022-12-18T09:01:23;-4.90;99.90
14006;DHT22;7078;51.542;7.314;2022-12-18T09:03:50;-4.80;99.90
14006;DHT22;7078;51.542;7.314;2022-12-18T09:06:17;-4.80;99.90
14006;DHT22;7078;51.542;7.314;2022-12-18T09:08:44;-4.60;99.90
14006;DHT22;7078;51.542;7.314;2022-12-18T09:11:23;-4.50;99.90
14006;DHT22;7078;51.542;7.314;2022-12-18T09:13:49;-4.40;99.90
14006;DHT22;7078;51.542;7.314;2022-12-18T09:16:16;-4.30;99.90
14006;DHT22;7078;51.542;7.314;2022-12-18T09:18:41;-4.20;99.90
14006;DHT22;7078;51.542;7.314;2022-12-18T09:21:08;-3.90;99.90
14006;DHT22;7078;51.542;7.314;2022-12-18T09:23:34;-3.90;99.90
14006;DHT22;7078;51.542;7.314;2022-12-18T09:25:59;-3.80;99.90
14006;DHT22;7078;51.542;7.314;2022-12-18T09:28:25;-3.70;99.90
14006;DHT22;7078;51.542;7.314;2022-12-18T09:30:51;-3.60;99.90
14006;DHT22;7078;51.542;7.314;2022-12-18T09:33:17;-3.50;99.90
14006;DHT22;7078;51.542;7.314;2022-12-18T09:35:43;-3.40;99.90
14006;DHT22;7078;51.542;7.314;2022-12-18T09:38:18;-3.30;99.90
14006;DHT22;7078;51.542;7.314;2022-12-18T09:40:46;-3.10;99.90
14006;DHT22;7078;51.542;7.314;2022-12-18T09:43:22;-2.90;99.90
14006;DHT22;7078;51.542;7.314;2022-12-18T09:45:52;-2.50;99.90
14006;DHT22;7078;51.542;7.314;2022-12-18T09:48:23;-2.20;99.90
14006;DHT22;7078;51.542;7.314;2022-12-18T09:50:56;-2.10;99.90
14006;DHT22;7078;51.542;7.314;2022-12-18T09:53:25;-2.00;99.90
14006;DHT22;7078;51.542;7.314;2022-12-18T09:55:52;-1.90;99.90
14006;DHT22;7078;51.542;7.314;2022-12-18T09:58:40;-1.90;99.90
14006;DHT22;7078;51.542;7.314;2022-12-18T10:01:17;-1.80;99.90
14006;DHT22;7078;51.542;7.314;2022-12-18T10:03:43;-1.80;99.90
14006;DHT22;7078;51.542;7.314;2022-12-18T10:06:15;-1.80;99.90
14006;DHT22;7078;51.542;7.314;2022-12-18T10:25:53;-1.30;99.90
14006;DHT22;7078;51.542;7.314;2022-12-18T10:28:20;-1.30;99.90
14006;DHT22;7078;51.542;7.314;2022-12-18T10:30:46;-1.20;99.90
14006;DHT22;7078;51.542;7.314;2022-12-18T10:33:18;-1.10;99.90
14006;DHT22;7078;51.542;7.314;2022-12-18T10:35:45;-1.10;99.90
14006;DHT22;7078;51.542;7.314;2022-12-18T10:40:56;-0.90;99.90
14006;DHT22;7078;51.542;7.314;2022-12-18T10:43:31;-0.80;99.90
14006;DHT22;7078;51.542;7.314;2022-12-18T10:48:30;-0.70;99.90
14006;DHT22;7078;51.542;7.314;2022-12-18T10:50:56;-0.50;99.90
14006;DHT22;7078;51.542;7.314;2022-12-18T10:53:24;-0.40;99.90
14006;DHT22;7078;51.542;7.314;2022-12-18T10:55:52;-0.40;99.90
14006;DHT22;7078;51.542;7.314;2022-12-18T10:58:29;-0.30;99.90
14006;DHT22;7078;51.542;7.314;2022-12-18T11:01:11;-0.20;99.90
14006;DHT22;7078;51.542;7.314;2022-12-18T11:03:42;-0.10;99.90
14006;DHT22;7078;51.542;7.314;2022-12-18T11:06:15;-0.20;99.90
14006;DHT22;7078;51.542;7.314;2022-12-18T11:08:42;-0.10;99.90
14006;DHT22;7078;51.542;7.314;2022-12-18T11:11:23;0.00;99.90
14006;DHT22;7078;51.542;7.314;2022-12-18T11:16:28;0.10;99.90
14006;DHT22;7078;51.542;7.314;2022-12-18T11:19:28;0.30;99.90
14006;DHT22;7078;51.542;7.314;2022-12-18T11:21:54;0.30;99.90
14006;DHT22;7078;51.542;7.314;2022-12-18T11:24:34;0.40;99.90
14006;DHT22;7078;51.542;7.314;2022-12-18T11:27:02;0.50;99.90
14006;DHT22;7078;51.542;7.314;2022-12-18T11:29:36;0.60;99.90
14006;DHT22;7078;51.542;7.314;2022-12-18T11:32:32;0.60;99.90
14006;DHT22;7078;51.542;7.314;2022-12-18T11:35:19;0.60;99.90
14006;DHT22;7078;51.542;7.314;2022-12-18T11:38:26;0.70;99.90
14006;DHT22;7078;51.542;7.314;2022-12-18T11:40:49;0.70;99.90
14006;DHT22;7078;51.542;7.314;2022-12-18T11:43:25;0.70;99.90
14006;DHT22;7078;51.542;7.314;2022-12-18T11:45:59;0.80;99.90
14006;DHT22;7078;51.542;7.314;2022-12-18T11:48:30;0.90;99.90
14006;DHT22;7078;51.542;7.314;2022-12-18T11:51:00;1.00;99.90
14006;DHT22;7078;51.542;7.314;2022-12-18T11:53:27;1.00;99.90
14006;DHT22;7078;51.542;7.314;2022-12-18T11:56:18;1.10;99.90
14006;DHT22;7078;51.542;7.314;2022-12-18T12:01:50;1.30;99.90
14006;DHT22;7078;51.542;7.314;2022-12-18T12:04:50;1.40;99.90
14006;DHT22;7078;51.542;7.314;2022-12-18T12:07:28;1.40;99.90
14006;DHT22;7078;51.542;7.314;2022-12-18T12:13:02;1.40;99.90
14006;DHT22;7078;51.542;7.314;2022-12-18T12:18:36;1.50;99.90
14006;DHT22;7078;51.542;7.314;2022-12-18T12:21:42;1.50;99.90
14006;DHT22;7078;51.542;7.314;2022-12-18T12:24:36;1.50;99.90
14006;DHT22;7078;51.542;7.314;2022-12-18T12:29:45;1.50;99.90
14006;DHT22;7078;51.542;7.314;2022-12-18T12:32:43;1.60;99.90
14006;DHT22;7078;51.542;7.314;2022-12-18T12:35:29;1.60;99.90
14006;DHT22;7078;51.542;7.314;2022-12-18T12:38:09;1.60;99.90
14006;DHT22;7078;51.542;7.314;2022-12-18T12:40:39;1.70;99.90
14006;DHT22;7078;51.542;7.314;2022-12-18T12:46:02;1.80;99.90
14006;DHT22;7078;51.542;7.314;2022-12-18T12:48:44;1.70;99.90
14006;DHT22;7078;51.542;7.314;2022-12-18T12:51:24;1.60;99.90
14006;DHT22;7078;51.542;7.314;2022-12-18T12:53:50;1.50;99.90
14006;DHT22;7078;51.542;7.314;2022-12-18T12:56:19;1.50;99.90
14006;DHT22;7078;51.542;7.314;2022-12-18T13:02:03;1.40;99.90
14006;DHT22;7078;51.542;7.314;2022-12-18T13:04:50;1.40;99.90
14006;DHT22;7078;51.542;7.314;2022-12-18T13:12:58;1.40;99.90
14006;DHT22;7078;51.542;7.314;2022-12-18T13:15:36;1.40;99.90
14006;DHT22;7078;51.542;7.314;2022-12-18T13:18:05;1.40;99.90
14006;DHT22;7078;51.542;7.314;2022-12-18T13:23:29;1.40;99.90
14006;DHT22;7078;51.542;7.314;2022-12-18T13:34:23;1.40;99.90
14006;DHT22;7078;51.542;7.314;2022-12-18T13:36:49;1.40;99.90
14006;DHT22;7078;51.542;7.314;2022-12-18T13:41:45;1.30;99.90
14006;DHT22;7078;51.542;7.314;2022-12-18T13:46:56;1.30;99.90
14006;DHT22;7078;51.542;7.314;2022-12-18T13:52:01;1.30;99.90
14006;DHT22;7078;51.542;7.314;2022-12-18T13:54:36;1.30;99.90
14006;DHT22;7078;51.542;7.314;2022-12-18T13:57:03;1.30;99.90
14006;DHT22;7078;51.542;7.314;2022-12-18T14:02:05;1.30;99.90
14006;DHT22;7078;51.542;7.314;2022-12-18T14:04:34;1.30;99.90
14006;DHT22;7078;51.542;7.314;2022-12-18T14:07:06;1.30;99.90
14006;DHT22;7078;51.542;7.314;2022-12-18T14:09:42;1.30;99.90
14006;DHT22;7078;51.542;7.314;2022-12-18T14:12:28;1.20;99.90
14006;DHT22;7078;51.542;7.314;2022-12-18T14:15:28;1.20;99.90
14006;DHT22;7078;51.542;7.314;2022-12-18T14:18:19;1.20;99.90
14006;DHT22;7078;51.542;7.314;2022-12-18T14:20:47;1.20;99.90
14006;DHT22;7078;51.542;7.314;2022-12-18T14:25:56;1.10;99.90
14006;DHT22;7078;51.542;7.314;2022-12-18T14:28:22;1.10;99.90
14006;DHT22;7078;51.542;7.314;2022-12-18T14:30:48;1.00;99.90
14006;DHT22;7078;51.542;7.314;2022-12-18T14:33:19;1.10;99.90
14006;DHT22;7078;51.542;7.314;2022-12-18T14:36:01;1.00;99.90
14006;DHT22;7078;51.542;7.314;2022-12-18T14:38:35;1.00;99.90
14006;DHT22;7078;51.542;7.314;2022-12-18T14:43:33;1.10;99.90
14006;DHT22;7078;51.542;7.314;2022-12-18T14:46:01;1.10;99.90
14006;DHT22;7078;51.542;7.314;2022-12-18T14:48:40;1.10;99.90
14006;DHT22;7078;51.542;7.314;2022-12-18T14:51:16;1.10;99.90
14006;DHT22;7078;51.542;7.314;2022-12-18T14:53:44;1.20;99.90
14006;DHT22;7078;51.542;7.314;2022-12-18T14:56:20;1.30;99.90
14006;DHT22;7078;51.542;7.314;2022-12-18T14:58:47;1.30;99.90
14006;DHT22;7078;51.542;7.314;2022-12-18T15:01:29;1.30;99.90
14006;DHT22;7078;51.542;7.314;2022-12-18T15:03:56;1.30;99.90
14006;DHT22;7078;51.542;7.314;2022-12-18T15:06:29;1.30;99.90
14006;DHT22;7078;51.542;7.314;2022-12-18T15:08:56;1.40;99.90
14006;DHT22;7078;51.542;7.314;2022-12-18T15:11:26;1.30;99.90
14006;DHT22;7078;51.542;7.314;2022-12-18T15:13:52;1.30;99.90
14006;DHT22;7078;51.542;7.314;2022-12-18T15:16:17;1.20;99.90
14006;DHT22;7078;51.542;7.314;2022-12-18T15:18:43;1.20;99.90
14006;DHT22;7078;51.542;7.314;2022-12-18T15:21:11;1.20;99.90
14006;DHT22;7078;51.542;7.314;2022-12-18T15:26:11;1.20;99.90
14006;DHT22;7078;51.542;7.314;2022-12-18T15:28:51;1.20;99.90
14006;DHT22;7078;51.542;7.314;2022-12-18T15:31:33;1.20;99.90
14006;DHT22;7078;51.542;7.314;2022-12-18T15:34:11;1.10;99.90
14006;DHT22;7078;51.542;7.314;2022-12-18T15:36:37;1.10;99.90
14006;DHT22;7078;51.542;7.314;2022-12-18T15:39:03;1.00;99.90
14006;DHT22;7078;51.542;7.314;2022-12-18T15:41:31;0.90;99.90
14006;DHT22;7078;51.542;7.314;2022-12-18T15:43:58;0.80;99.90
14006;DHT22;7078;51.542;7.314;2022-12-18T15:46:24;0.80;99.90
14006;DHT22;7078;51.542;7.314;2022-12-18T15:48:56;0.70;99.90
14006;DHT22;7078;51.542;7.314;2022-12-18T15:51:28;0.70;99.90
14006;DHT22;7078;51.542;7.314;2022-12-18T15:53:56;0.70;99.90
14006;DHT22;7078;51.542;7.314;2022-12-18T15:56:23;0.70;99.90
14006;DHT22;7078;51.542;7.314;2022-12-18T15:59:16;0.70;99.90
14006;DHT22;7078;51.542;7.314;2022-12-18T16:01:45;0.70;99.90
14006;DHT22;7078;51.542;7.314;2022-12-18T16:04:12;0.60;99.90
14006;DHT22;7078;51.542;7.314;2022-12-18T16:06:39;0.60;99.90
14006;DHT22;7078;51.542;7.314;2022-12-18T16:09:04;0.60;99.90
14006;DHT22;7078;51.542;7.314;2022-12-18T16:11:32;0.60;99.90
14006;DHT22;7078;51.542;7.314;2022-12-18T16:14:21;0.60;99.90
14006;DHT22;7078;51.542;7.314;2022-12-18T16:16:51;0.60;99.90
14006;DHT22;7078;51.542;7.314;2022-12-18T16:19:18;0.60;99.90
14006;DHT22;7078;51.542;7.314;2022-12-18T16:21:44;0.60;99.90
14006;DHT22;7078;51.542;7.314;2022-12-18T16:24:20;0.80;99.90
14006;DHT22;7078;51.542;7.314;2022-12-18T16:26:49;0.90;99.90
14006;DHT22;7078;51.542;7.314;2022-12-18T16:29:17;1.20;99.90
14006;DHT22;7078;51.542;7.314;2022-12-18T16:31:42;1.30;99.90
14006;DHT22;7078;51.542;7.314;2022-12-18T16:34:18;1.50;99.90
14006;DHT22;7078;51.542;7.314;2022-12-18T16:36:44;1.60;99.90
14006;DHT22;7078;51.542;7.314;2022-12-18T16:39:10;1.70;99.90
14006;DHT22;7078;51.542;7.314;2022-12-18T16:41:35;1.70;99.90
14006;DHT22;7078;51.542;7.314;2022-12-18T16:44:01;1.80;99.90
14006;DHT22;7078;51.542;7.314;2022-12-18T16:46:27;1.80;99.90
14006;DHT22;7078;51.542;7.314;2022-12-18T16:48:52;1.80;99.90
14006;DHT22;7078;51.542;7.314;2022-12-18T16:51:18;1.90;99.90
14006;DHT22;7078;51.542;7.314;2022-12-18T16:53:43;1.90;99.90
14006;DHT22;7078;51.542;7.314;2022-12-18T16:56:09;1.80;99.90
14006;DHT22;7078;51.542;7.314;2022-12-18T16:58:34;1.80;99.90
14006;DHT22;7078;51.542;7.314;2022-12-18T17:01:00;1.80;99.90
14006;DHT22;7078;51.542;7.314;2022-12-18T17:03:26;1.80;99.90
14006;DHT22;7078;51.542;7.314;2022-12-18T17:05:51;1.80;99.90
14006;DHT22;7078;51.542;7.314;2022-12-18T17:08:17;1.80;99.90
14006;DHT22;7078;51.542;7.314;2022-12-18T17:10:42;1.80;99.90
14006;DHT22;7078;51.542;7.314;2022-12-18T17:13:08;1.90;99.90
14006;DHT22;7078;51.542;7.314;2022-12-18T17:15:34;1.80;99.90
14006;DHT22;7078;51.542;7.314;2022-12-18T17:18:00;1.80;99.90
14006;DHT22;7078;51.542;7.314;2022-12-18T17:20:26;1.80;99.90
14006;DHT22;7078;51.542;7.314;2022-12-18T17:22:51;1.80;99.90
14006;DHT22;7078;51.542;7.314;2022-12-18T17:25:17;1.80;99.90
14006;DHT22;7078;51.542;7.314;2022-12-18T17:27:42;1.70;99.90
14006;DHT22;7078;51.542;7.314;2022-12-18T17:30:08;1.70;99.90
14006;DHT22;7078;51.542;7.314;2022-12-18T17:32:34;1.70;99.90
14006;DHT22;7078;51.542;7.314;2022-12-18T17:35:00;1.70;99.90
14006;DHT22;7078;51.542;7.314;2022-12-18T17:37:25;1.70;99.90
14006;DHT22;7078;51.542;7.314;2022-12-18T17:39:52;1.70;99.90
14006;DHT22;7078;51.542;7.314;2022-12-18T17:42:17;1.70;99.90
14006;DHT22;7078;51.542;7.314;2022-12-18T17:44:43;1.70;99.90